Hauptseite
METAR-TAF:

METAR-TAF

Flughäfen :

La Chaux-de-Fonds, Schweiz

Flugplatz Les Eplatures

Breite: 47-05-03N, Länge: 006-47-37E, Höhe: 1027 m

Beobachtung

Neuester Wetterbericht von vor 38 Minuten, um 08:20 UTC
Wind 4 kt aus Süd/Südwest, variierte zwischen Süd und West/Südwest
Temperatur 6°C
Luftfeuchtigkeit 52%
Luftdruck 1009 hPa
Sichtweite 10 km oder mehr
keine Wolken unter 1500 m und keine Kumulonimbus oder Gewitterwolken

METAR: LSGC 270820Z 21004KT 180V250 CAVOK 06/M03 Q1009

Zeit: 09:58 (08:58 UTC)

Prognose

Neuester Wetterbericht von vor 33 Minuten, um 08:25 UTC
Gültige Prognose vom 27 um 09 UTC bis 27 um 18 UTC
Wind 3 kt aus Südwest
Sichtweite 10 km oder mehr
keine Wolken unter 1500 m und keine Kumulonimbus oder Gewitterwolken
Übergehend zu
vom 27 um 10 UTC bis 27 um 12 UTC
Wind 15 kt aus West/Südwest, Böen bis zu 30 kt

TAF: LSGC 270825Z 2709/2718 23003KT CAVOK BECMG 2710/2712 24015G30KT

Wetterbeobachtungen und Prognosen von mehr als 4000 Flughäfen (METAR und TAF Bericht).

Die verfügbaren Stationen werden durch gelbe und rote Markierungen auf der Karte dargestellt.

Führen Sie die Maus auf sie, um den Namen der Station zu sehen.

Darauf klicken, um die Beobachtung von Wetterbeobachtungen und Prognosen zu sehen.

Um die Karte zu ändern : klicken Sie auf den grünen Tasten mit einem schwarzen Kreuz Zum Vergrößern, auf den grünen Button mit einem Gedankenstrich zu verkleinern, oder auf die grünen Pfeile für benachbarte Karten.


METAR-TAF: